Time;durP1;ratioP1;P1;durP2;ratioP2;P2;SDS_P1;SDS_P2;PMS_P1;PMS_P2;Temp;Humidity;BMP_temperature;BMP_pressure;BME280_temperature;BME280_humidity;BME280_pressure;Samples;Min_cycle;Max_cycle;Signal;HPM_P1;HPM_P2
2024/03/15 00:02:15;;;;;;;4.10;2.92;;;13.80;99.90;;;;;;5073825;28;20493;-53
2024/03/15 00:04:41;;;;;;;6.25;3.90;;;13.80;99.90;;;;;;5073941;28;20104;-54
2024/03/15 00:07:07;;;;;;;4.07;2.92;;;13.80;99.90;;;;;;5073926;28;20033;-52
2024/03/15 00:09:33;;;;;;;7.72;3.53;;;13.80;99.90;;;;;;5073597;28;20047;-51
2024/03/15 00:12:02;;;;;;;6.13;3.85;;;13.80;99.90;;;;;;5073805;28;20495;-53
2024/03/15 00:14:27;;;;;;;8.35;4.03;;;13.80;99.90;;;;;;5074090;28;20028;-61
2024/03/15 00:16:56;;;;;;;6.15;3.80;;;13.80;99.90;;;;;;5073952;28;20013;-51
2024/03/15 00:19:22;;;;;;;6.45;2.95;;;13.80;99.90;;;;;;5062813;28;20481;-53
2024/03/15 00:21:49;;;;;;;6.55;3.97;;;13.90;99.90;;;;;;5073702;28;20028;-53
2024/03/15 00:24:15;;;;;;;6.55;3.72;;;13.80;99.90;;;;;;5073578;28;20532;-51
2024/03/15 00:26:42;;;;;;;10.73;3.58;;;13.80;99.90;;;;;;5073563;28;20029;-40
2024/03/15 00:29:09;;;;;;;5.45;3.55;;;13.90;99.90;;;;;;5073461;28;20542;-39
2024/03/15 00:31:35;;;;;;;7.65;3.72;;;13.80;99.90;;;;;;5072741;28;20024;-41
2024/03/15 00:34:03;;;;;;;5.93;3.95;;;13.80;99.90;;;;;;5073288;28;20028;-40
2024/03/15 00:36:31;;;;;;;5.97;3.95;;;13.90;99.90;;;;;;5073239;28;20021;-40
2024/03/15 00:38:57;;;;;;;9.13;3.88;;;13.90;99.90;;;;;;5073885;28;20465;-38
2024/03/15 00:41:23;;;;;;;9.77;4.10;;;13.90;99.90;;;;;;5073224;28;20074;-38
2024/03/15 00:43:51;;;;;;;7.28;3.83;;;13.80;99.90;;;;;;5073313;28;20622;-40
2024/03/15 00:46:17;;;;;;;11.07;4.28;;;13.90;99.90;;;;;;5073167;28;20096;-41
2024/03/15 00:48:43;;;;;;;9.95;4.25;;;13.90;99.90;;;;;;5073257;28;20163;-40
2024/03/15 00:51:09;;;;;;;10.55;4.60;;;13.90;99.90;;;;;;5072970;28;20028;-38
2024/03/15 00:53:38;;;;;;;8.90;4.22;;;13.90;99.90;;;;;;5072788;28;20107;-38
2024/03/15 00:56:04;;;;;;;7.97;4.43;;;13.90;99.90;;;;;;5072965;28;20150;-39
2024/03/15 00:58:30;;;;;;;7.13;3.75;;;13.80;99.90;;;;;;5073127;28;20415;-39
2024/03/15 01:00:56;;;;;;;8.98;4.15;;;13.90;99.90;;;;;;5072886;28;20146;-40
2024/03/15 01:03:24;;;;;;;8.70;3.88;;;13.80;99.90;;;;;;5072684;28;20024;-39
2024/03/15 01:05:50;;;;;;;9.32;4.88;;;13.80;99.90;;;;;;5072617;28;20117;-40
2024/03/15 01:08:15;;;;;;;6.10;4.20;;;13.90;99.90;;;;;;5072860;28;20052;-41
2024/03/15 01:10:41;;;;;;;4.93;3.60;;;13.90;99.90;;;;;;5072346;28;20075;-39
2024/03/15 01:13:07;;;;;;;8.05;4.05;;;13.80;99.90;;;;;;5061228;28;20119;-39
2024/03/15 01:15:33;;;;;;;9.52;4.22;;;13.90;99.90;;;;;;5052640;28;20406;-40
2024/03/15 01:17:58;;;;;;;5.47;3.40;;;13.80;99.90;;;;;;5060071;28;20450;-44
2024/03/15 01:20:24;;;;;;;8.55;3.90;;;13.90;99.90;;;;;;5072524;28;20438;-39
2024/03/15 01:22:49;;;;;;;9.35;4.57;;;13.80;99.90;;;;;;5072555;28;20110;-39
2024/03/15 01:25:15;;;;;;;6.45;3.63;;;13.80;99.90;;;;;;5071154;28;20054;-40
2024/03/15 01:27:41;;;;;;;6.97;3.90;;;13.80;99.90;;;;;;5072274;28;20028;-40
2024/03/15 01:30:10;;;;;;;7.45;4.15;;;13.80;99.90;;;;;;5072412;28;20037;-42
2024/03/15 01:32:36;;;;;;;6.72;3.60;;;13.80;99.90;;;;;;5072236;28;20025;-41
2024/03/15 01:35:05;;;;;;;5.85;3.90;;;13.70;99.90;;;;;;5072691;28;20028;-53
2024/03/15 01:37:31;;;;;;;8.25;4.57;;;13.70;99.90;;;;;;5072273;28;20500;-52
2024/03/15 01:40:00;;;;;;;10.55;4.10;;;13.70;99.90;;;;;;5071119;28;20048;-56
2024/03/15 01:42:25;;;;;;;6.13;3.58;;;13.70;99.90;;;;;;5071272;28;20028;-54
2024/03/15 01:44:56;;;;;;;5.72;4.05;;;13.70;99.90;;;;;;5072021;28;20036;-50
2024/03/15 01:47:26;;;;;;;7.00;3.50;;;13.70;99.90;;;;;;5054354;28;20443;-54
2024/03/15 01:49:54;;;;;;;5.47;4.07;;;13.70;99.90;;;;;;5072190;28;20489;-61
2024/03/15 01:52:21;;;;;;;12.07;4.53;;;13.70;99.90;;;;;;5072175;28;20040;-62
2024/03/15 01:54:47;;;;;;;7.68;4.53;;;13.70;99.90;;;;;;5072182;28;20496;-55
2024/03/15 01:57:17;;;;;;;8.20;3.85;;;13.70;99.90;;;;;;5072116;28;20468;-54
2024/03/15 01:59:46;;;;;;;8.10;3.80;;;13.70;99.90;;;;;;5070851;28;20028;-55
2024/03/15 02:02:13;;;;;;;8.93;3.97;;;13.70;99.90;;;;;;5071992;28;20051;-51
2024/03/15 02:04:39;;;;;;;9.65;4.68;;;13.70;99.90;;;;;;5071206;28;20485;-55
2024/03/15 02:07:05;;;;;;;8.13;4.53;;;13.60;99.90;;;;;;5071837;28;20028;-53
2024/03/15 02:09:30;;;;;;;8.35;4.32;;;13.70;99.90;;;;;;5071751;28;20102;-54
2024/03/15 02:11:56;;;;;;;8.13;4.57;;;13.60;99.90;;;;;;5071836;28;20447;-52
2024/03/15 02:14:23;;;;;;;9.02;4.22;;;13.50;99.90;;;;;;5072014;28;20024;-52
2024/03/15 02:16:49;;;;;;;5.80;4.22;;;13.50;99.90;;;;;;5070942;28;20535;-52
2024/03/15 02:19:15;;;;;;;10.63;4.10;;;13.50;99.90;;;;;;5071777;28;20428;-52
2024/03/15 02:21:41;;;;;;;5.72;3.97;;;13.40;99.90;;;;;;5071987;28;20043;-51
2024/03/15 02:24:07;;;;;;;8.68;4.72;;;13.40;99.90;;;;;;5071785;28;20027;-54
2024/03/15 02:26:33;;;;;;;6.32;4.05;;;13.30;99.90;;;;;;5071824;28;20040;-53
2024/03/15 02:29:02;;;;;;;7.38;4.72;;;13.30;99.90;;;;;;5070510;28;20489;-53
2024/03/15 02:31:29;;;;;;;7.88;5.05;;;13.30;99.90;;;;;;5071765;28;20033;-55
2024/03/15 02:33:55;;;;;;;6.03;4.25;;;13.30;99.90;;;;;;5071694;28;20024;-54
2024/03/15 02:36:20;;;;;;;9.95;4.30;;;13.30;99.90;;;;;;5071607;28;20024;-50
2024/03/15 02:38:47;;;;;;;7.10;4.20;;;13.30;99.90;;;;;;5071688;28;20489;-54
2024/03/15 02:41:16;;;;;;;12.95;4.82;;;13.30;99.90;;;;;;5071631;28;20508;-53
2024/03/15 02:43:42;;;;;;;11.57;4.75;;;13.30;99.90;;;;;;5071568;28;20056;-54
2024/03/15 02:46:08;;;;;;;8.65;4.90;;;13.30;99.90;;;;;;5070564;28;20484;-39
2024/03/15 02:48:40;;;;;;;7.70;3.92;;;13.20;99.90;;;;;;5071560;28;20493;-53
2024/03/15 02:51:06;;;;;;;17.48;5.22;;;13.10;99.90;;;;;;5071657;28;20473;-55
2024/03/15 02:53:32;;;;;;;12.10;4.57;;;13.00;99.90;;;;;;5071363;28;20024;-41
2024/03/15 02:56:01;;;;;;;6.40;4.47;;;12.90;99.90;;;;;;5075272;28;20419;-44
2024/03/15 02:58:27;;;;;;;12.20;5.43;;;12.90;99.90;;;;;;5075233;28;20107;-41
2024/03/15 03:00:56;;;;;;;9.13;5.05;;;12.80;99.90;;;;;;5075170;28;20029;-42
2024/03/15 03:03:23;;;;;;;6.85;4.90;;;12.70;99.90;;;;;;5073933;28;20028;-41
2024/03/15 03:05:49;;;;;;;10.45;4.70;;;12.70;99.90;;;;;;5075117;28;20440;-43
2024/03/15 03:08:15;;;;;;;7.40;4.82;;;12.60;99.90;;;;;;5075022;28;20029;-41
2024/03/15 03:10:44;;;;;;;13.48;5.13;;;12.60;99.90;;;;;;5073323;28;20040;-44
2024/03/15 03:13:09;;;;;;;8.73;4.82;;;12.50;99.90;;;;;;5075213;28;20033;-43
2024/03/15 03:15:35;;;;;;;6.93;4.47;;;12.50;99.90;;;;;;5074904;28;20104;-40
2024/03/15 03:18:01;;;;;;;11.75;4.85;;;12.50;99.90;;;;;;5074895;28;20066;-40
2024/03/15 03:20:32;;;;;;;10.55;4.88;;;12.50;99.90;;;;;;5074829;28;20047;-41
2024/03/15 03:23:04;;;;;;;6.43;4.68;;;12.50;99.90;;;;;;5074861;28;20056;-41
2024/03/15 03:25:31;;;;;;;6.38;4.65;;;12.50;99.90;;;;;;5074529;28;20033;-40
2024/03/15 03:27:56;;;;;;;13.17;5.07;;;12.50;99.90;;;;;;5073456;28;20035;-40
2024/03/15 03:30:22;;;;;;;11.27;4.47;;;12.50;99.90;;;;;;5074612;28;20025;-42
2024/03/15 03:32:49;;;;;;;10.13;4.57;;;12.50;99.90;;;;;;5074617;28;20090;-40
2024/03/15 03:35:15;;;;;;;9.45;4.40;;;12.50;99.90;;;;;;5074794;28;20392;-41
2024/03/15 03:37:41;;;;;;;8.73;5.07;;;12.50;99.90;;;;;;5074559;28;20016;-41
2024/03/15 03:40:13;;;;;;;6.88;4.78;;;12.50;99.90;;;;;;5074322;28;20017;-40
2024/03/15 03:42:39;;;;;;;8.35;4.57;;;12.50;99.90;;;;;;5074144;28;20115;-41
2024/03/15 03:45:15;;;;;;;8.75;5.10;;;12.50;99.90;;;;;;5073148;28;20430;-43
2024/03/15 03:47:43;;;;;;;6.28;4.40;;;12.50;99.90;;;;;;5074543;28;20381;-40
2024/03/15 03:50:11;;;;;;;8.82;4.82;;;12.50;99.90;;;;;;5074130;28;20081;-41
2024/03/15 03:52:39;;;;;;;5.95;4.03;;;12.50;99.90;;;;;;5074093;28;20063;-40
2024/03/15 03:55:05;;;;;;;6.55;3.70;;;12.60;99.90;;;;;;5074326;28;20017;-54
2024/03/15 03:57:31;;;;;;;5.78;3.88;;;12.60;99.90;;;;;;5074158;28;20078;-56
2024/03/15 03:59:57;;;;;;;15.93;4.40;;;12.60;99.90;;;;;;5072493;28;20021;-40
2024/03/15 04:02:22;;;;;;;6.50;4.38;;;12.60;99.90;;;;;;5073896;28;20025;-39
2024/03/15 04:04:48;;;;;;;6.05;3.55;;;12.70;99.90;;;;;;5073858;28;20111;-43
2024/03/15 04:07:13;;;;;;;9.35;4.43;;;12.70;99.90;;;;;;5072997;28;20024;-39
2024/03/15 04:09:39;;;;;;;6.05;3.75;;;12.70;99.90;;;;;;5073665;28;20490;-67
2024/03/15 04:12:05;;;;;;;8.18;3.75;;;12.80;99.90;;;;;;5074024;28;20025;-40
2024/03/15 04:14:33;;;;;;;8.63;4.15;;;12.70;99.90;;;;;;5073689;28;20517;-41
2024/03/15 04:16:59;;;;;;;6.38;3.75;;;12.80;99.90;;;;;;5073444;28;20028;-40
2024/03/15 04:19:25;;;;;;;14.20;5.00;;;12.80;99.90;;;;;;5073642;28;20484;-39
2024/03/15 04:21:51;;;;;;;12.07;4.40;;;12.80;99.90;;;;;;5073856;28;20075;-41
2024/03/15 04:24:17;;;;;;;11.90;4.38;;;12.80;99.90;;;;;;5073874;28;20465;-39
2024/03/15 04:26:43;;;;;;;12.07;5.10;;;12.80;99.90;;;;;;5073536;28;20033;-39
2024/03/15 04:29:08;;;;;;;7.05;4.20;;;12.80;99.90;;;;;;5073560;28;20154;-41
2024/03/15 04:31:34;;;;;;;7.82;3.90;;;12.80;99.90;;;;;;5073462;28;20070;-42
2024/03/15 04:34:00;;;;;;;11.05;3.83;;;12.90;99.90;;;;;;5073120;28;20033;-47
2024/03/15 04:36:26;;;;;;;5.75;3.80;;;12.90;99.90;;;;;;5073396;28;20021;-39
2024/03/15 04:38:52;;;;;;;5.97;4.22;;;12.90;99.90;;;;;;5073598;28;20473;-40
2024/03/15 04:41:22;;;;;;;6.68;4.05;;;12.90;99.90;;;;;;5072447;28;20059;-39
2024/03/15 04:43:49;;;;;;;13.43;3.80;;;12.90;99.90;;;;;;5060456;28;20481;-39
2024/03/15 04:46:16;;;;;;;8.68;4.00;;;12.90;99.90;;;;;;5053263;28;20025;-40
2024/03/15 04:48:43;;;;;;;6.20;3.28;;;12.90;99.90;;;;;;5059310;28;20025;-39
2024/03/15 04:51:11;;;;;;;7.13;3.70;;;12.90;99.90;;;;;;5072877;28;20115;-38
2024/03/15 04:53:37;;;;;;;;;;;12.90;99.90;;;;;;5073401;28;20056;-73
2024/03/15 04:56:03;;;;;;;16.02;4.03;;;12.90;99.90;;;;;;5073290;28;20353;-42
2024/03/15 04:58:31;;;;;;;7.55;3.70;;;13.00;99.90;;;;;;5073132;28;20025;-41
2024/03/15 05:00:57;;;;;;;7.80;3.28;;;13.00;99.90;;;;;;5072968;28;20357;-39
2024/03/15 05:03:22;;;;;;;5.50;3.45;;;13.00;99.90;;;;;;5072826;28;20130;-39
2024/03/15 05:05:49;;;;;;;9.85;3.80;;;12.90;99.90;;;;;;5073269;28;20028;-53
2024/03/15 05:08:15;;;;;;;5.75;3.58;;;12.90;99.90;;;;;;5072662;28;20017;-55
2024/03/15 05:10:41;;;;;;;6.60;3.30;;;12.90;99.90;;;;;;5072580;28;20044;-55
2024/03/15 05:13:07;;;;;;;6.85;4.28;;;12.90;99.90;;;;;;5072511;28;20025;-55
2024/03/15 05:15:35;;;;;;;5.65;3.35;;;12.90;99.90;;;;;;5054621;28;20027;-40
2024/03/15 05:18:01;;;;;;;3.60;3.22;;;12.90;99.90;;;;;;5072396;28;20423;-41
2024/03/15 05:20:27;;;;;;;5.75;3.58;;;12.90;99.90;;;;;;5072581;28;20024;-41
2024/03/15 05:22:52;;;;;;;6.18;3.40;;;12.90;99.90;;;;;;5072552;28;20051;-43
2024/03/15 05:25:18;;;;;;;8.93;3.45;;;12.80;99.90;;;;;;5072356;28;20056;-43
2024/03/15 05:27:47;;;;;;;6.43;3.47;;;12.80;99.90;;;;;;5072786;28;20095;-44
2024/03/15 05:30:14;;;;;;;5.88;3.65;;;12.80;99.90;;;;;;5072386;28;20020;-41
2024/03/15 05:32:39;;;;;;;9.57;3.40;;;12.70;99.90;;;;;;5072574;28;20036;-44
2024/03/15 05:35:06;;;;;;;9.82;3.17;;;12.70;99.90;;;;;;5072398;28;20497;-40
2024/03/15 05:37:31;;;;;;;6.63;2.97;;;12.60;99.90;;;;;;5070983;28;20021;-52
2024/03/15 05:39:57;;;;;;;6.45;3.88;;;12.60;99.90;;;;;;5072323;28;20074;-42
2024/03/15 05:42:25;;;;;;;8.55;3.95;;;12.60;99.90;;;;;;5070734;28;20052;-41
2024/03/15 05:44:51;;;;;;;;;;;12.60;99.90;;;;;;5072794;28;20066;-46
2024/03/15 05:47:17;;;;;;;7.18;4.40;;;12.50;99.90;;;;;;5072298;28;19904;-45
2024/03/15 05:49:43;;;;;;;10.63;4.20;;;12.50;99.90;;;;;;5072077;28;20034;-46
2024/03/15 05:52:10;;;;;;;7.75;4.80;;;12.50;99.90;;;;;;5072462;28;20024;-42
2024/03/15 05:54:39;;;;;;;4.93;3.55;;;12.50;99.90;;;;;;5072577;28;20429;-43
2024/03/15 05:57:06;;;;;;;5.53;3.92;;;12.50;99.90;;;;;;5071185;28;20480;-49
2024/03/15 05:59:32;;;;;;;9.02;4.10;;;12.60;99.90;;;;;;5071951;28;20012;-44
2024/03/15 06:01:58;;;;;;;8.65;4.60;;;12.60;99.90;;;;;;5072157;28;20532;-43
2024/03/15 06:04:24;;;;;;;5.68;4.10;;;12.50;99.90;;;;;;5072062;28;20151;-44
2024/03/15 06:06:50;;;;;;;8.63;4.32;;;12.60;99.90;;;;;;5072088;28;20571;-46
2024/03/15 06:09:16;;;;;;;9.02;4.82;;;12.60;99.90;;;;;;5070691;28;20013;-42
2024/03/15 06:11:41;;;;;;;7.05;4.07;;;12.60;99.90;;;;;;5071779;28;20047;-42
2024/03/15 06:14:08;;;;;;;5.30;3.85;;;12.60;99.90;;;;;;5072017;28;20032;-41
2024/03/15 06:16:34;;;;;;;7.93;4.03;;;12.50;99.90;;;;;;5071865;28;20059;-54
2024/03/15 06:19:00;;;;;;;10.40;4.78;;;12.50;99.90;;;;;;5072127;28;20469;-55
2024/03/15 06:21:28;;;;;;;10.57;4.47;;;12.50;99.90;;;;;;5071772;28;20023;-52
2024/03/15 06:23:55;;;;;;;8.25;4.53;;;12.50;99.90;;;;;;5071771;28;20070;-54
2024/03/15 06:26:22;;;;;;;9.17;4.50;;;12.50;99.90;;;;;;5072081;28;20469;-53
2024/03/15 06:28:53;;;;;;;12.35;5.45;;;12.60;99.90;;;;;;5072296;28;20527;-55
2024/03/15 06:31:19;;;;;;;8.23;4.50;;;12.60;99.90;;;;;;5074493;28;20029;-54
2024/03/15 06:33:47;;;;;;;12.60;4.80;;;12.60;99.90;;;;;;5075299;28;20033;-55
2024/03/15 06:36:16;;;;;;;5.45;3.95;;;12.60;99.90;;;;;;5075654;28;20468;-53
2024/03/15 06:44:19;;;;;;;13.65;4.95;;;12.80;99.90;;;;;;5075467;28;20489;-52
2024/03/15 06:49:48;;;;;;;7.88;4.72;;;12.80;99.90;;;;;;5075307;28;20054;-54
2024/03/15 06:55:00;;;;;;;8.93;5.00;;;12.80;99.90;;;;;;5075465;28;20523;-71
2024/03/15 06:57:27;;;;;;;8.98;5.18;;;12.80;99.90;;;;;;5075393;28;20036;-52
2024/03/15 06:59:53;;;;;;;7.83;5.10;;;12.80;99.90;;;;;;5075392;28;20024;-53
2024/03/15 07:02:19;;;;;;;11.02;5.10;;;12.90;99.90;;;;;;5075114;28;20409;-54
2024/03/15 07:04:45;;;;;;;7.65;4.85;;;12.90;99.90;;;;;;5075290;28;20021;-53
2024/03/15 07:07:13;;;;;;;8.30;4.63;;;13.00;99.90;;;;;;5074918;28;20024;-53
2024/03/15 07:09:39;;;;;;;8.82;4.60;;;12.90;99.90;;;;;;5073425;28;20498;-53
2024/03/15 07:12:05;;;;;;;10.85;5.00;;;12.90;99.90;;;;;;5074941;28;20103;-54
2024/03/15 07:14:31;;;;;;;7.45;4.28;;;12.90;99.90;;;;;;5074987;28;20027;-53
2024/03/15 07:16:56;;;;;;;11.95;4.80;;;13.00;99.90;;;;;;5074764;28;20012;-53
2024/03/15 07:19:23;;;;;;;7.43;4.32;;;13.00;99.90;;;;;;5075100;28;20388;-57
2024/03/15 07:21:48;;;;;;;8.20;4.15;;;13.10;99.90;;;;;;5073483;28;20017;-53
2024/03/15 07:24:14;;;;;;;14.68;4.38;;;13.10;99.90;;;;;;5074751;28;20036;-56
2024/03/15 07:26:39;;;;;;;6.97;4.43;;;13.20;99.90;;;;;;5073529;28;20021;-53
2024/03/15 07:29:06;;;;;;;8.07;4.05;;;13.20;99.90;;;;;;5074898;28;20025;-55
2024/03/15 07:31:32;;;;;;;9.50;5.22;;;13.20;99.90;;;;;;5074584;28;20032;-54
2024/03/15 07:33:57;;;;;;;8.30;4.60;;;13.30;99.90;;;;;;5074517;28;20023;-54
2024/03/15 07:36:24;;;;;;;6.18;3.63;;;13.30;99.90;;;;;;5074506;28;20380;-60
2024/03/15 07:38:53;;;;;;;10.77;4.50;;;13.40;99.90;;;;;;5073211;28;20538;-55
2024/03/15 07:41:21;;;;;;;14.57;4.18;;;13.40;99.90;;;;;;5074215;28;20096;-61
2024/03/15 07:43:47;;;;;;;13.23;5.28;;;13.40;99.90;;;;;;5072892;28;20031;-56
2024/03/15 07:46:13;;;;;;;6.28;3.53;;;13.40;99.90;;;;;;5074417;28;20519;-53
2024/03/15 07:48:41;;;;;;;6.22;3.78;;;13.40;99.90;;;;;;5073143;28;20035;-54
2024/03/15 07:51:07;;;;;;;10.25;4.47;;;13.40;99.90;;;;;;5074438;28;20502;-54
2024/03/15 07:53:33;;;;;;;10.77;3.72;;;13.40;99.90;;;;;;5074020;28;20099;-54
2024/03/15 07:56:03;;;;;;;14.05;4.40;;;13.30;99.90;;;;;;5074218;28;20258;-54
2024/03/15 07:58:29;;;;;;;14.15;4.20;;;13.40;99.90;;;;;;5073995;28;20052;-42
2024/03/15 08:00:56;;;;;;;8.90;3.42;;;13.50;99.90;;;;;;5074128;28;20021;-47
2024/03/15 08:03:23;;;;;;;13.40;4.95;;;13.60;99.90;;;;;;5068897;28;20521;-40
2024/03/15 08:05:49;;;;;;;9.45;3.92;;;13.70;99.90;;;;;;5054028;28;20029;-43
2024/03/15 08:08:15;;;;;;;9.75;3.03;;;13.70;99.90;;;;;;5053897;28;20039;-40
2024/03/15 08:10:41;;;;;;;9.68;2.72;;;13.80;99.90;;;;;;5052294;28;20044;-40
2024/03/15 08:13:07;;;;;;;7.10;2.50;;;13.80;99.90;;;;;;5053773;28;20029;-40
2024/03/15 08:15:33;;;;;;;3.38;2.20;;;13.90;99.90;;;;;;5064527;28;20021;-40
2024/03/15 08:18:03;;;;;;;4.55;2.55;;;13.90;99.90;;;;;;5073696;28;20465;-40
2024/03/15 08:20:28;;;;;;;9.20;2.28;;;14.00;99.90;;;;;;5073549;28;20016;-43
2024/03/15 08:22:57;;;;;;;3.92;2.00;;;14.10;99.90;;;;;;5072400;28;20039;-71
2024/03/15 08:25:25;;;;;;;10.98;2.53;;;14.20;99.90;;;;;;5073559;28;20491;-55
2024/03/15 08:27:51;;;;;;;6.07;1.90;;;14.20;99.90;;;;;;5073520;28;20021;-55
2024/03/15 08:30:17;;;;;;;6.28;2.05;;;14.20;99.90;;;;;;5073415;28;20035;-52
2024/03/15 08:32:43;;;;;;;7.22;2.70;;;14.20;99.90;;;;;;5073129;28;20030;-54
2024/03/15 08:35:13;;;;;;;7.03;1.90;;;14.30;99.90;;;;;;5073330;28;20045;-56
2024/03/15 08:37:42;;;;;;;7.63;1.90;;;14.40;99.90;;;;;;5073555;28;20024;-55
2024/03/15 08:40:09;;;;;;;9.40;2.90;;;14.50;99.90;;;;;;5073104;28;20024;-55
2024/03/15 08:42:35;;;;;;;6.80;2.00;;;14.40;99.90;;;;;;5055335;28;20021;-55
2024/03/15 08:45:00;;;;;;;5.65;2.22;;;14.40;99.90;;;;;;5073234;28;20029;-55
2024/03/15 08:47:27;;;;;;;7.80;2.72;;;14.40;99.90;;;;;;5073119;28;20484;-58
2024/03/15 08:49:53;;;;;;;8.45;2.42;;;14.20;99.90;;;;;;5072934;28;20021;-55
2024/03/15 08:52:18;;;;;;;6.60;2.40;;;14.20;99.90;;;;;;5072504;28;20020;-54
2024/03/15 08:54:44;;;;;;;7.43;2.47;;;14.10;99.90;;;;;;5073092;28;20079;-53
2024/03/15 08:57:10;;;;;;;4.45;2.08;;;14.10;99.90;;;;;;5072996;28;20048;-56
2024/03/15 08:59:37;;;;;;;6.22;2.28;;;14.30;99.90;;;;;;5073143;28;20386;-55
2024/03/15 09:02:04;;;;;;;7.07;3.05;;;14.40;99.90;;;;;;5073206;28;20024;-56
2024/03/15 09:04:30;;;;;;;5.78;2.70;;;14.60;99.90;;;;;;5073008;28;20469;-56
2024/03/15 09:06:56;;;;;;;5.50;2.50;;;14.70;99.90;;;;;;5072635;28;20027;-55
2024/03/15 09:09:31;;;;;;;5.35;2.47;;;14.80;99.90;;;;;;5072744;28;20107;-58
2024/03/15 09:11:57;;;;;;;11.30;2.60;;;14.80;99.90;;;;;;5072937;28;20062;-56
2024/03/15 09:14:24;;;;;;;8.65;3.00;;;14.80;99.90;;;;;;5072588;28;20427;-56
2024/03/15 09:16:50;;;;;;;5.00;2.50;;;14.80;99.90;;;;;;5072820;28;20489;-55
2024/03/15 09:19:17;;;;;;;7.65;3.08;;;14.90;99.90;;;;;;5072445;28;20044;-56
2024/03/15 09:21:44;;;;;;;10.02;3.30;;;15.00;99.90;;;;;;5072541;28;20485;-57
2024/03/15 09:24:11;;;;;;;7.00;2.55;;;15.10;99.90;;;;;;5072666;28;20385;-73
2024/03/15 09:26:37;;;;;;;;;;;15.10;99.90;;;;;;5072856;28;20107;-67
2024/03/15 09:29:06;;;;;;;5.88;2.33;;;15.10;99.90;;;;;;5072787;28;19946;-56
2024/03/15 09:31:32;;;;;;;11.30;2.47;;;15.00;99.90;;;;;;5072579;28;20032;-55
2024/03/15 09:34:00;;;;;;;6.05;1.83;;;14.90;99.90;;;;;;5072220;28;20131;-54
2024/03/15 09:36:28;;;;;;;10.13;2.00;;;14.80;99.90;;;;;;5072363;28;20028;-55
2024/03/15 09:38:54;;;;;;;11.73;2.67;;;14.80;99.90;;;;;;5072534;28;20096;-56
2024/03/15 09:41:20;;;;;;;5.53;2.58;;;14.80;99.90;;;;;;5072126;28;20023;-54
2024/03/15 09:43:46;;;;;;;5.35;2.22;;;14.80;99.90;;;;;;5072087;28;20024;-54
2024/03/15 09:46:18;;;;;;;9.32;1.98;;;14.90;99.90;;;;;;5072457;28;20070;-43
2024/03/15 09:48:44;;;;;;;5.70;2.42;;;15.00;99.90;;;;;;5072172;28;20048;-42
2024/03/15 09:51:15;;;;;;;4.77;2.10;;;15.00;99.90;;;;;;5070922;28;20021;-44
2024/03/15 09:53:41;;;;;;;5.65;2.28;;;15.00;99.90;;;;;;5072341;28;20081;-45
2024/03/15 09:56:15;;;;;;;3.72;1.60;;;15.10;99.90;;;;;;5072189;28;20013;-47
2024/03/15 09:58:42;;;;;;;7.60;1.80;;;15.10;99.90;;;;;;5072247;28;20500;-41
2024/03/15 10:01:15;;;;;;;5.13;1.92;;;15.10;99.90;;;;;;5072182;28;20363;-39
2024/03/15 10:03:42;;;;;;;3.58;1.70;;;14.90;99.90;;;;;;5072438;28;20033;-47
2024/03/15 10:06:11;;;;;;;4.60;1.38;;;14.90;99.90;;;;;;5076510;28;20012;-75
2024/03/15 10:08:37;;;;;;;13.27;1.80;;;14.90;99.90;;;;;;5076194;28;20570;-41
2024/03/15 10:11:03;;;;;;;4.97;2.20;;;14.90;99.90;;;;;;5075963;28;20048;-49
2024/03/15 10:13:31;;;;;;;2.97;1.40;;;15.00;99.90;;;;;;5075960;28;20048;-44
2024/03/15 10:16:00;;;;;;;6.28;1.40;;;14.90;99.90;;;;;;5076311;28;20488;-42
2024/03/15 10:18:26;;;;;;;6.47;1.25;;;15.10;99.90;;;;;;5076203;28;20389;-43
2024/03/15 10:20:56;;;;;;;6.00;2.25;;;15.20;99.90;;;;;;5075915;28;20029;-45
2024/03/15 10:23:22;;;;;;;5.63;1.58;;;15.20;99.90;;;;;;5075954;28;20154;-46
2024/03/15 10:25:52;;;;;;;8.02;1.60;;;15.10;99.90;;;;;;5074640;28;20047;-50
2024/03/15 10:28:20;;;;;;;7.80;1.58;;;15.00;99.90;;;;;;5076138;28;20024;-50
2024/03/15 10:30:49;;;;;;;8.75;1.55;;;14.90;99.90;;;;;;5075931;28;20407;-43
2024/03/15 10:33:16;;;;;;;9.65;1.58;;;14.90;99.90;;;;;;5075649;28;20103;-47
2024/03/15 10:35:42;;;;;;;5.90;1.42;;;14.90;99.90;;;;;;5075661;28;20024;-41
2024/03/15 10:38:12;;;;;;;9.45;1.70;;;14.80;99.90;;;;;;5075558;28;20075;-47
2024/03/15 10:40:37;;;;;;;2.65;1.38;;;14.80;99.90;;;;;;5074203;28;20373;-58
2024/03/15 10:43:08;;;;;;;12.63;1.52;;;14.90;99.90;;;;;;5075254;28;20032;-44
2024/03/15 10:45:35;;;;;;;16.98;2.10;;;14.90;99.90;;;;;;5072501;28;20553;-45
2024/03/15 10:48:06;;;;;;;9.47;1.13;;;15.10;99.90;;;;;;5075084;28;20075;-43
2024/03/15 10:50:33;;;;;;;9.65;2.47;;;15.10;99.90;;;;;;5073407;28;20477;-47
2024/03/15 10:53:05;;;;;;;4.50;1.02;;;15.10;99.90;;;;;;5056867;28;20032;-42
2024/03/15 10:55:30;;;;;;;3.60;1.23;;;15.20;99.90;;;;;;5055722;28;20473;-57
2024/03/15 10:58:00;;;;;;;9.68;1.70;;;15.20;99.90;;;;;;5055205;28;20021;-55
2024/03/15 11:00:30;;;;;;;7.68;2.33;;;15.20;99.90;;;;;;5055201;28;20060;-55
2024/03/15 11:02:57;;;;;;;4.97;1.13;;;15.30;99.90;;;;;;5055075;28;20044;-56
2024/03/15 11:05:25;;;;;;;6.45;1.52;;;15.40;99.90;;;;;;5075142;28;20028;-56
2024/03/15 11:08:13;;;;;;;4.22;1.20;;;15.40;99.90;;;;;;5074027;28;20448;-55
2024/03/15 11:10:40;;;;;;;5.28;1.10;;;15.70;99.90;;;;;;5068962;28;20099;-56
2024/03/15 11:13:07;;;;;;;15.40;1.52;;;15.90;99.90;;;;;;5054960;28;20485;-58
2024/03/15 11:15:37;;;;;;;7.13;1.55;;;16.00;99.90;;;;;;5054575;28;20021;-56
2024/03/15 11:18:11;;;;;;;3.90;1.15;;;16.10;99.90;;;;;;5054898;28;20059;-59
2024/03/15 11:20:46;;;;;;;5.40;1.45;;;16.10;99.90;;;;;;5055136;28;20031;-55
2024/03/15 11:23:17;;;;;;;4.05;1.45;;;16.10;99.90;;;;;;5070708;28;20024;-55
2024/03/15 11:26:00;;;;;;;8.63;1.02;;;16.10;99.90;;;;;;5074769;28;20056;-53
2024/03/15 11:28:27;;;;;;;6.00;1.30;;;15.90;99.90;;;;;;5074655;28;20050;-59
2024/03/15 11:30:53;;;;;;;1.33;1.00;;;15.70;99.90;;;;;;5074684;28;20488;-55
2024/03/15 11:33:19;;;;;;;4.65;1.33;;;15.70;99.90;;;;;;5071808;28;20531;-53
2024/03/15 11:35:45;;;;;;;7.57;1.58;;;15.60;99.90;;;;;;5074539;28;20016;-55
2024/03/15 11:38:12;;;;;;;5.03;1.20;;;15.50;99.90;;;;;;5074504;28;20024;-53
2024/03/15 11:40:39;;;;;;;3.27;1.10;;;15.40;99.90;;;;;;5074161;28;20059;-56
2024/03/15 11:43:09;;;;;;;7.15;1.40;;;15.40;99.90;;;;;;5074053;28;20028;-55
2024/03/15 11:45:39;;;;;;;6.30;1.40;;;15.40;99.90;;;;;;5074257;28;20028;-54
2024/03/15 11:48:16;;;;;;;8.48;1.65;;;15.40;99.90;;;;;;5074317;28;20024;-56
2024/03/15 11:50:42;;;;;;;4.05;0.88;;;15.40;99.90;;;;;;5074146;28;20043;-53
2024/03/15 11:53:10;;;;;;;3.92;1.30;;;15.40;99.90;;;;;;5072827;28;20027;-54
2024/03/15 11:55:36;;;;;;;;;;;15.50;99.90;;;;;;5074192;28;20037;-55
2024/03/15 11:58:02;;;;;;;6.97;1.27;;;15.50;99.90;;;;;;5074454;28;20007;-54
2024/03/15 12:00:28;;;;;;;6.90;1.63;;;15.70;99.90;;;;;;5074011;28;20493;-56
2024/03/15 12:02:54;;;;;;;7.28;1.38;;;16.00;99.90;;;;;;5070467;28;20017;-56
2024/03/15 12:05:19;;;;;;;3.60;1.45;;;16.20;99.90;;;;;;5054043;28;20033;-55
2024/03/15 12:07:45;;;;;;;3.35;1.13;;;16.30;99.90;;;;;;5054052;28;20028;-47
2024/03/15 12:10:15;;;;;;;2.47;1.20;;;16.30;99.90;;;;;;5053810;28;20098;-65
2024/03/15 12:12:50;;;;;;;3.03;1.30;;;16.20;99.90;;;;;;5057504;28;20514;-41
2024/03/15 12:15:29;;;;;;;7.63;1.52;;;16.10;99.90;;;;;;5073963;28;20025;-50
2024/03/15 12:17:58;;;;;;;6.45;1.58;;;15.90;99.90;;;;;;5073842;28;20473;-68
2024/03/15 12:20:25;;;;;;;3.85;1.33;;;15.70;99.90;;;;;;5073832;28;20350;-43
2024/03/15 12:22:52;;;;;;;2.13;1.03;;;15.40;99.90;;;;;;5073727;28;20024;-45
2024/03/15 12:25:18;;;;;;;5.15;1.80;;;15.20;99.90;;;;;;5072408;28;20031;-48
2024/03/15 12:27:44;;;;;;;5.60;1.73;;;15.10;99.90;;;;;;5071411;28;20025;-45
2024/03/15 12:30:12;;;;;;;7.22;1.70;;;15.10;99.90;;;;;;5073682;28;20028;-48
2024/03/15 12:32:38;;;;;;;3.03;1.40;;;15.10;99.90;;;;;;5073335;28;20476;-43
2024/03/15 12:35:04;;;;;;;7.25;1.55;;;15.20;99.90;;;;;;5073422;28;20028;-45
2024/03/15 12:37:31;;;;;;;3.00;1.00;;;15.30;99.90;;;;;;5073672;28;20372;-44
2024/03/15 12:39:59;;;;;;;4.45;1.88;;;15.40;99.90;;;;;;5073024;28;20423;-56
2024/03/15 12:42:26;;;;;;;1.88;1.23;;;15.40;99.90;;;;;;5073167;28;20025;-56
2024/03/15 12:44:54;;;;;;;2.95;1.13;;;15.50;99.90;;;;;;5073223;28;20423;-57
2024/03/15 12:47:20;;;;;;;2.67;1.17;;;15.60;99.90;;;;;;5073017;28;20032;-44
2024/03/15 12:49:46;;;;;;;1.65;1.00;;;15.60;99.90;;;;;;5073058;28;20028;-42
2024/03/15 12:52:14;;;;;;;1.50;1.27;;;15.60;99.90;;;;;;5072951;28;20601;-44
2024/03/15 12:54:41;;;;;;;6.10;1.45;;;15.70;99.90;;;;;;5073019;28;20048;-43
2024/03/15 12:57:08;;;;;;;4.78;1.33;;;15.80;99.90;;;;;;5071529;28;20514;-44